Time;durP1;ratioP1;P1;durP2;ratioP2;P2;SDS_P1;SDS_P2;PMS_P1;PMS_P2;Temp;Humidity;BMP_temperature;BMP_pressure;BME280_temperature;BME280_humidity;BME280_pressure;Samples;Min_cycle;Max_cycle;Signal;HPM_P1;HPM_P2
2022/01/11 00:01:05;;;;;;;40.85;24.67;;;1.30;99.90;;;;;;5061442;28;20090;-77
2022/01/11 00:03:31;;;;;;;38.53;25.17;;;1.80;99.90;;;;;;5076449;28;20044;-77
2022/01/11 00:06:17;;;;;;;38.45;23.50;;;2.60;99.90;;;;;;5060556;28;20044;-77
2022/01/11 00:08:45;;;;;;;42.00;23.80;;;2.00;99.90;;;;;;5047232;28;20043;-78
2022/01/11 00:11:11;;;;;;;33.70;21.90;;;1.20;99.90;;;;;;5044329;28;20114;-78
2022/01/11 00:13:40;;;;;;;37.83;24.15;;;2.40;99.90;;;;;;5045168;28;20123;-77
2022/01/11 00:16:07;;;;;;;42.50;23.17;;;2.00;99.90;;;;;;5036936;28;20098;-78
2022/01/11 00:18:33;;;;;;;40.13;21.92;;;2.40;99.90;;;;;;5077562;28;20048;-77
2022/01/11 00:20:59;;;;;;;37.92;21.95;;;1.20;99.90;;;;;;5047707;28;20043;-77
2022/01/11 00:25:53;;;;;;;35.97;22.63;;;2.30;99.90;;;;;;5077539;28;20147;-78
2022/01/11 00:28:20;;;;;;;39.38;23.98;;;1.20;99.90;;;;;;5060151;28;20071;-77
2022/01/11 00:30:48;;;;;;;37.03;22.95;;;2.40;99.90;;;;;;5076043;28;20047;-78
2022/01/11 00:33:18;;;;;;;38.55;23.67;;;1.20;99.90;;;;;;5076744;28;20071;-77
2022/01/11 00:35:56;;;;;;;35.10;22.08;;;1.20;99.90;;;;;;5059942;28;20048;-77
2022/01/11 00:38:23;;;;;;;35.35;21.73;;;1.50;99.90;;;;;;5061456;28;20051;-77
2022/01/11 00:40:51;;;;;;;42.97;22.30;;;1.20;99.90;;;;;;5060851;28;20048;-77
2022/01/11 00:43:18;;;;;;;37.85;22.33;;;2.50;99.90;;;;;;5075374;28;20032;-77
2022/01/11 00:45:44;;;;;;;39.30;21.98;;;1.10;99.90;;;;;;5043804;28;20048;-77
2022/01/11 00:48:11;;;;;;;36.38;21.35;;;1.80;99.90;;;;;;5045713;28;20109;-78
2022/01/11 00:50:37;;;;;;;35.38;21.98;;;2.60;99.90;;;;;;5059887;28;20043;-77
2022/01/11 00:53:06;;;;;;;31.17;20.20;;;2.70;99.90;;;;;;5057986;28;20160;-77
2022/01/11 00:55:33;;;;;;;32.08;19.95;;;2.70;99.90;;;;;;5077451;28;20042;-80
2022/01/11 00:57:59;;;;;;;36.63;20.40;;;1.10;99.90;;;;;;5060254;28;20058;-77
2022/01/11 01:00:25;;;;;;;30.95;20.13;;;1.60;99.90;;;;;;5059444;28;20040;-80
2022/01/11 01:02:51;;;;;;;35.72;20.50;;;2.30;99.90;;;;;;5058049;28;20054;-78
2022/01/11 01:05:17;;;;;;;33.90;20.45;;;1.10;99.90;;;;;;5076159;28;20150;-77
2022/01/11 01:07:46;;;;;;;36.10;21.73;;;1.50;99.90;;;;;;5075863;28;20455;-77
2022/01/11 01:10:25;;;;;;;35.33;21.20;;;1.10;99.90;;;;;;5041617;28;20044;-77
2022/01/11 01:12:56;;;;;;;32.92;19.95;;;2.30;99.90;;;;;;5057132;28;20390;-78
2022/01/11 01:15:23;;;;;;;29.35;18.52;;;1.10;99.90;;;;;;5076512;28;20044;-77
2022/01/11 01:17:49;;;;;;;34.13;19.23;;;1.40;99.90;;;;;;5059728;28;20056;-77
2022/01/11 01:20:14;;;;;;;30.90;18.88;;;1.10;99.90;;;;;;5076270;28;20054;-78
2022/01/11 01:22:40;;;;;;;29.98;18.92;;;1.10;99.90;;;;;;5041425;28;20043;-77
2022/01/11 01:25:07;;;;;;;29.85;19.48;;;2.10;99.90;;;;;;5058167;28;20048;-78
2022/01/11 01:27:33;;;;;;;32.97;19.08;;;1.20;99.90;;;;;;5057185;28;20082;-77
2022/01/11 01:29:59;;;;;;;30.88;18.45;;;1.20;99.90;;;;;;5057500;28;20044;-77
2022/01/11 01:32:25;;;;;;;31.48;17.83;;;2.40;99.90;;;;;;5055277;28;20043;-78
2022/01/11 01:34:54;;;;;;;29.67;17.38;;;1.90;99.90;;;;;;5074051;28;20047;-79
2022/01/11 01:37:20;;;;;;;27.42;16.67;;;1.60;99.90;;;;;;5059523;28;20438;-77
2022/01/11 01:39:46;;;;;;;29.65;17.98;;;1.20;99.90;;;;;;5028956;28;20151;-77
2022/01/11 01:42:12;;;;;;;28.25;16.08;;;2.10;99.90;;;;;;5074738;28;20049;-78
2022/01/11 01:44:40;;;;;;;27.65;16.05;;;1.20;99.90;;;;;;5059891;28;20072;-78
2022/01/11 01:47:07;;;;;;;27.15;16.25;;;1.60;99.90;;;;;;5042077;28;20044;-78
2022/01/11 01:49:36;;;;;;;31.60;16.70;;;1.30;99.90;;;;;;5058672;28;20044;-77
2022/01/11 01:52:02;;;;;;;31.50;17.17;;;1.30;99.90;;;;;;5025367;28;20131;-77
2022/01/11 01:54:27;;;;;;;31.30;16.52;;;1.30;99.90;;;;;;5057593;28;20686;-77
2022/01/11 01:56:53;;;;;;;29.45;16.05;;;1.40;99.90;;;;;;5059901;28;20151;-77
2022/01/11 01:59:20;;;;;;;35.97;16.33;;;1.40;99.90;;;;;;5058770;28;20047;-77
2022/01/11 02:01:47;;;;;;;30.10;16.42;;;1.30;99.90;;;;;;5075318;28;20050;-77
2022/01/11 02:04:16;;;;;;;30.85;16.83;;;2.50;99.90;;;;;;5057472;28;20066;-77
2022/01/11 02:06:42;;;;;;;31.35;16.80;;;2.80;99.90;;;;;;5076441;28;20048;-77
2022/01/11 02:09:10;;;;;;;33.92;16.38;;;1.30;99.90;;;;;;5058458;28;20071;-77
2022/01/11 02:11:35;;;;;;;29.20;15.13;;;2.40;99.90;;;;;;5058991;28;21624;-77
2022/01/11 02:14:01;;;;;;;29.77;16.10;;;1.30;99.90;;;;;;5057497;28;20127;-77
2022/01/11 02:16:27;;;;;;;30.85;15.30;;;1.40;99.90;;;;;;5057811;28;20055;-77
2022/01/11 02:18:53;;;;;;;28.50;15.73;;;1.40;99.90;;;;;;5075803;28;20795;-77
2022/01/11 02:21:20;;;;;;;27.13;15.48;;;2.30;99.90;;;;;;5072923;28;20048;-77
2022/01/11 02:23:46;;;;;;;38.80;16.63;;;1.80;99.90;;;;;;5057976;28;20411;-78
2022/01/11 02:26:12;;;;;;;31.95;16.60;;;2.20;99.90;;;;;;5091220;28;20451;-77
2022/01/11 02:28:39;;;;;;;32.38;17.02;;;1.50;99.90;;;;;;5058561;28;20048;-77
2022/01/11 02:31:08;;;;;;;37.40;17.10;;;1.60;99.90;;;;;;5075081;28;20119;-78
2022/01/11 02:33:38;;;;;;;31.88;17.17;;;1.40;99.90;;;;;;5040839;28;20052;-77
2022/01/11 02:36:06;;;;;;;31.35;16.50;;;2.40;99.90;;;;;;5073952;28;20039;-77
2022/01/11 02:38:32;;;;;;;32.25;17.52;;;1.40;99.90;;;;;;5060954;28;20052;-77
2022/01/11 02:40:58;;;;;;;33.47;18.15;;;1.40;99.90;;;;;;5057829;28;20058;-78
2022/01/11 02:43:25;;;;;;;37.22;17.88;;;2.40;99.90;;;;;;5057807;28;20075;-77
2022/01/11 02:45:51;;;;;;;39.17;18.33;;;1.40;99.90;;;;;;5057233;28;20040;-77
2022/01/11 02:48:18;;;;;;;36.85;17.85;;;1.70;99.90;;;;;;5075161;28;20048;-77
2022/01/11 02:50:47;;;;;;;36.65;17.08;;;1.70;99.90;;;;;;5057618;28;20044;-77
2022/01/11 02:53:13;;;;;;;39.17;17.83;;;1.50;99.90;;;;;;5073049;28;20044;-78
2022/01/11 02:55:40;;;;;;;35.95;17.38;;;1.30;99.90;;;;;;5042143;28;20124;-77
2022/01/11 02:58:07;;;;;;;35.33;17.13;;;2.50;99.90;;;;;;5055448;28;20040;-77
2022/01/11 03:00:33;;;;;;;39.15;17.98;;;1.60;99.90;;;;;;5057871;28;20058;-77
2022/01/11 03:03:15;;;;;;;33.60;16.75;;;1.30;99.90;;;;;;5056512;28;20056;-78
2022/01/11 03:05:49;;;;;;;32.65;17.10;;;1.20;99.90;;;;;;5075511;28;20048;-77
2022/01/11 03:08:16;;;;;;;34.13;16.75;;;1.80;99.90;;;;;;5061319;28;20046;-77
2022/01/11 03:10:42;;;;;;;31.10;16.98;;;1.20;99.90;;;;;;5061248;28;20075;-77
2022/01/11 03:13:09;;;;;;;36.88;17.65;;;1.90;99.90;;;;;;5061311;28;20044;-77
2022/01/11 03:15:37;;;;;;;32.78;16.10;;;1.20;99.90;;;;;;5061864;28;20052;-78
2022/01/11 03:18:04;;;;;;;31.80;16.13;;;1.10;99.90;;;;;;5061997;28;20059;-78
2022/01/11 03:20:35;;;;;;;32.45;16.48;;;1.20;99.90;;;;;;5081558;28;20749;-77
2022/01/11 03:23:02;;;;;;;33.00;16.33;;;1.10;99.90;;;;;;5063412;28;20069;-78
2022/01/11 03:25:28;;;;;;;29.00;17.20;;;1.10;99.90;;;;;;5061455;28;20116;-77
2022/01/11 03:27:54;;;;;;;32.30;17.40;;;1.10;99.90;;;;;;5062085;28;20048;-77
2022/01/11 03:30:20;;;;;;;34.42;17.02;;;2.40;99.90;;;;;;5061691;28;20105;-77
2022/01/11 03:32:46;;;;;;;30.20;16.40;;;1.10;99.90;;;;;;5059401;28;20127;-77
2022/01/11 03:35:12;;;;;;;34.15;16.75;;;1.00;99.90;;;;;;5061447;28;20040;-77
2022/01/11 03:37:39;;;;;;;30.20;16.48;;;1.60;99.90;;;;;;5062431;28;20072;-77
2022/01/11 03:40:08;;;;;;;28.65;16.45;;;1.00;99.90;;;;;;5043809;28;20051;-78
2022/01/11 03:42:34;;;;;;;35.92;18.48;;;1.00;99.90;;;;;;5076491;28;20050;-77
2022/01/11 03:45:00;;;;;;;29.58;16.90;;;1.50;99.90;;;;;;5077900;28;20056;-77
2022/01/11 03:47:25;;;;;;;34.45;17.73;;;1.00;99.90;;;;;;5060511;28;20079;-77
2022/01/11 03:49:51;;;;;;;31.98;17.73;;;1.70;99.90;;;;;;5061271;28;20036;-77
2022/01/11 03:52:17;;;;;;;29.15;16.65;;;1.10;99.90;;;;;;5063279;28;20087;-78
2022/01/11 03:57:21;;;;;;;34.05;15.63;;;0.90;99.90;;;;;;5076865;28;20056;-77
2022/01/11 03:59:47;;;;;;;29.52;15.85;;;0.90;99.90;;;;;;5060760;28;20040;-77
2022/01/11 04:02:14;;;;;;;29.25;17.02;;;2.00;99.90;;;;;;5075827;28;20059;-77
2022/01/11 04:04:39;;;;;;;31.70;16.35;;;1.30;99.90;;;;;;5076328;28;20048;-77
2022/01/11 04:07:05;;;;;;;31.65;17.00;;;0.90;99.90;;;;;;5077293;28;20564;-78
2022/01/11 04:09:31;;;;;;;34.42;17.17;;;2.10;99.90;;;;;;5060278;28;20052;-77
2022/01/11 04:11:57;;;;;;;34.13;16.30;;;1.40;99.90;;;;;;5076419;28;20044;-78
2022/01/11 04:14:25;;;;;;;31.40;15.88;;;1.50;99.90;;;;;;5061235;28;20856;-77
2022/01/11 04:16:52;;;;;;;36.40;18.15;;;1.70;99.90;;;;;;5044035;28;20148;-77
2022/01/11 04:19:19;;;;;;;33.30;17.08;;;1.10;99.90;;;;;;5059951;28;20082;-78
2022/01/11 04:21:45;;;;;;;31.20;17.38;;;2.10;99.90;;;;;;5043281;28;20040;-77
2022/01/11 04:24:12;;;;;;;36.15;17.20;;;1.50;99.90;;;;;;5038551;28;20059;-77
2022/01/11 04:26:38;;;;;;;36.80;18.17;;;1.50;99.90;;;;;;5032243;28;20079;-77
2022/01/11 04:29:05;;;;;;;34.90;17.02;;;0.90;99.90;;;;;;5048807;28;20052;-77
2022/01/11 04:31:32;;;;;;;36.00;17.50;;;0.90;99.90;;;;;;5049342;28;20495;-77
2022/01/11 04:33:57;;;;;;;34.95;18.33;;;0.90;99.90;;;;;;5065671;28;20044;-77
2022/01/11 04:36:23;;;;;;;35.13;17.65;;;2.60;99.90;;;;;;5049875;28;20824;-77
2022/01/11 04:38:49;;;;;;;33.40;16.88;;;0.90;99.90;;;;;;5066568;28;20040;-77
2022/01/11 04:41:15;;;;;;;37.58;18.15;;;0.90;99.90;;;;;;5048875;28;20536;-77
2022/01/11 04:43:42;;;;;;;36.38;19.20;;;0.90;99.90;;;;;;5042561;28;20075;-77
2022/01/11 04:46:08;;;;;;;39.63;18.42;;;1.00;99.90;;;;;;5044285;28;20051;-77
2022/01/11 04:48:33;;;;;;;40.67;17.83;;;0.90;99.90;;;;;;5049588;28;20049;-77
2022/01/11 04:51:02;;;;;;;37.72;17.25;;;2.10;99.90;;;;;;5033093;28;20059;-77
2022/01/11 04:53:27;;;;;;;36.03;18.10;;;1.00;99.90;;;;;;5076018;28;20052;-77
2022/01/11 04:55:54;;;;;;;37.53;17.83;;;2.80;99.90;;;;;;5033643;28;20393;-77
2022/01/11 04:58:20;;;;;;;34.88;17.02;;;1.90;99.90;;;;;;5046950;28;20083;-77
2022/01/11 05:00:46;;;;;;;41.28;18.65;;;1.90;99.90;;;;;;5065760;28;20076;-77
2022/01/11 05:03:12;;;;;;;40.70;20.83;;;1.20;99.90;;;;;;5048394;28;20056;-78
2022/01/11 05:05:38;;;;;;;44.40;18.98;;;1.00;99.90;;;;;;5050492;28;20397;-77
2022/01/11 05:08:05;;;;;;;43.28;19.77;;;1.00;99.90;;;;;;5032922;28;20056;-77
2022/01/11 05:10:31;;;;;;;38.95;18.90;;;1.10;99.90;;;;;;5032897;28;20702;-78
2022/01/11 05:12:58;;;;;;;38.40;17.98;;;1.50;99.90;;;;;;5063202;28;20052;-77
2022/01/11 05:15:25;;;;;;;44.38;19.65;;;2.10;99.90;;;;;;5031903;28;20864;-77
2022/01/11 05:17:52;;;;;;;46.38;19.83;;;1.10;99.90;;;;;;5049284;28;20482;-77
2022/01/11 05:20:18;;;;;;;44.63;20.70;;;2.00;99.90;;;;;;5049377;28;20037;-77
2022/01/11 05:22:45;;;;;;;46.28;18.75;;;1.20;99.90;;;;;;5031508;28;20047;-77
2022/01/11 05:25:13;;;;;;;42.70;19.70;;;1.70;99.90;;;;;;5055379;28;20131;-78
2022/01/11 05:27:40;;;;;;;40.42;19.05;;;1.30;99.90;;;;;;5040666;28;20063;-77
2022/01/11 05:30:08;;;;;;;42.00;18.98;;;2.60;99.90;;;;;;5054976;28;20048;-77
2022/01/11 05:32:35;;;;;;;44.65;19.40;;;1.30;99.90;;;;;;5042650;28;20062;-78
2022/01/11 05:35:03;;;;;;;48.67;19.77;;;1.30;99.90;;;;;;5044109;28;20041;-78
2022/01/11 05:37:29;;;;;;;48.45;19.63;;;1.80;99.90;;;;;;5072413;28;20052;-78
2022/01/11 05:39:55;;;;;;;46.33;19.48;;;1.70;99.90;;;;;;5040002;28;20041;-78
2022/01/11 05:42:22;;;;;;;44.75;20.13;;;1.30;99.90;;;;;;5071960;28;20039;-78
2022/01/11 05:44:48;;;;;;;48.50;20.35;;;1.30;99.90;;;;;;5057517;28;20226;-78
2022/01/11 05:47:14;;;;;;;45.15;20.50;;;1.30;99.90;;;;;;5074589;28;20079;-79
2022/01/11 05:49:39;;;;;;;46.60;21.27;;;1.30;99.90;;;;;;5073395;28;20044;-77
2022/01/11 05:52:05;;;;;;;45.80;20.10;;;2.40;99.90;;;;;;5055551;28;20044;-78
2022/01/11 05:54:31;;;;;;;50.25;19.98;;;1.30;99.90;;;;;;5057489;28;20056;-78
2022/01/11 05:56:57;;;;;;;40.38;19.20;;;1.40;99.90;;;;;;5042080;28;20044;-78
2022/01/11 05:59:22;;;;;;;41.90;20.23;;;2.00;99.90;;;;;;5056487;28;20121;-78
2022/01/11 06:01:48;;;;;;;45.83;20.80;;;1.40;99.90;;;;;;5023873;28;20465;-78
2022/01/11 06:04:14;;;;;;;47.63;18.77;;;2.30;99.90;;;;;;5057346;28;20056;-77
2022/01/11 06:06:40;;;;;;;47.35;19.85;;;2.70;99.90;;;;;;5075274;28;20064;-77
2022/01/11 06:09:06;;;;;;;47.13;20.02;;;1.20;99.90;;;;;;5056044;28;20058;-78
2022/01/11 06:11:31;;;;;;;48.47;20.50;;;2.50;99.90;;;;;;5055576;28;20040;-76
2022/01/11 06:13:57;;;;;;;44.85;20.08;;;1.30;99.90;;;;;;5072910;28;20047;-77
2022/01/11 06:16:23;;;;;;;45.15;20.08;;;2.10;99.90;;;;;;5074350;28;20055;-77
2022/01/11 06:18:49;;;;;;;46.03;20.35;;;1.30;99.90;;;;;;5057333;28;20093;-77
2022/01/11 06:21:15;;;;;;;46.83;20.27;;;2.20;99.90;;;;;;5057865;28;20112;-78
2022/01/11 06:23:41;;;;;;;45.83;20.13;;;1.30;99.90;;;;;;5042133;28;20045;-78
2022/01/11 06:26:07;;;;;;;48.72;23.20;;;1.30;99.90;;;;;;5059377;28;20378;-78
2022/01/11 06:28:32;;;;;;;45.75;21.30;;;1.30;99.90;;;;;;5056010;28;20550;-78
2022/01/11 06:30:58;;;;;;;47.47;19.65;;;1.50;99.90;;;;;;5059002;28;20231;-78
2022/01/11 06:33:24;;;;;;;51.22;21.15;;;0.50;99.90;;;;;;5072290;28;20052;-77
2022/01/11 06:35:50;;;;;;;48.65;20.35;;;1.30;99.90;;;;;;5045146;28;20047;-78
2022/01/11 06:38:16;;;;;;;50.53;20.98;;;2.70;99.90;;;;;;5025656;28;20473;-77
2022/01/11 06:40:42;;;;;;;52.05;20.40;;;2.30;99.90;;;;;;5058191;28;20047;-77
2022/01/11 06:43:08;;;;;;;51.15;20.35;;;1.30;99.90;;;;;;5078522;28;20044;-78
2022/01/11 06:45:35;;;;;;;49.47;21.77;;;2.60;99.90;;;;;;5078261;28;20153;-78
2022/01/11 06:48:01;;;;;;;45.53;20.13;;;2.30;99.90;;;;;;5062989;28;20072;-77
2022/01/11 06:50:27;;;;;;;50.92;22.30;;;2.20;99.90;;;;;;5046782;28;20449;-78
2022/01/11 06:52:53;;;;;;;51.65;21.35;;;1.40;99.90;;;;;;5028270;28;20050;-77
2022/01/11 06:55:20;;;;;;;49.13;20.55;;;2.60;99.90;;;;;;5080277;28;20558;-78
2022/01/11 06:57:47;;;;;;;49.92;20.80;;;1.60;99.90;;;;;;5078467;28;20129;-78
2022/01/11 07:00:14;;;;;;;52.45;20.73;;;2.70;99.90;;;;;;5060199;28;20973;-78
2022/01/11 07:02:40;;;;;;;51.80;20.70;;;1.40;99.90;;;;;;5077939;28;20143;-78
2022/01/11 07:05:07;;;;;;;51.53;20.80;;;1.40;99.90;;;;;;5062862;28;20035;-78
2022/01/11 07:07:33;;;;;;;53.03;20.23;;;1.40;99.90;;;;;;5045920;28;20393;-78
2022/01/11 07:09:59;;;;;;;53.80;20.88;;;1.40;99.90;;;;;;5062376;28;20048;-78
2022/01/11 07:12:25;;;;;;;47.70;19.90;;;1.40;99.90;;;;;;5031234;28;20058;-79
2022/01/11 07:14:51;;;;;;;46.17;20.80;;;1.40;99.90;;;;;;5061663;28;20055;-78
2022/01/11 07:17:16;;;;;;;53.85;21.00;;;1.40;99.90;;;;;;5045464;28;20371;-77
2022/01/11 07:19:42;;;;;;;55.30;21.58;;;2.50;99.90;;;;;;5060556;28;20063;-77
2022/01/11 07:22:09;;;;;;;51.95;20.77;;;1.40;99.90;;;;;;5073973;28;20048;-78
2022/01/11 07:24:35;;;;;;;48.42;21.13;;;2.50;99.90;;;;;;5058740;28;20571;-80
2022/01/11 07:27:01;;;;;;;46.17;19.92;;;2.70;99.90;;;;;;5044024;28;20391;-78
2022/01/11 07:29:26;;;;;;;50.05;21.48;;;1.40;99.90;;;;;;5062163;28;20052;-79
2022/01/11 07:31:52;;;;;;;45.40;20.38;;;2.50;99.90;;;;;;5014939;28;20040;-78
2022/01/11 07:34:18;;;;;;;47.78;20.55;;;1.60;99.90;;;;;;5077877;28;20530;-78
2022/01/11 07:36:44;;;;;;;46.58;20.42;;;2.30;99.90;;;;;;5078052;28;20071;-78
2022/01/11 07:39:12;;;;;;;46.45;20.80;;;1.60;99.90;;;;;;5061746;28;20059;-79
2022/01/11 07:41:38;;;;;;;48.85;21.05;;;1.40;99.90;;;;;;5060956;28;20826;-78
2022/01/11 07:44:05;;;;;;;51.58;20.45;;;2.60;99.90;;;;;;5058848;28;20055;-79
2022/01/11 07:46:30;;;;;;;47.92;21.27;;;1.40;99.90;;;;;;5061384;28;20155;-78
2022/01/11 07:48:59;;;;;;;54.95;21.02;;;2.10;99.90;;;;;;5028388;28;20054;-79
2022/01/11 07:51:25;;;;;;;47.72;19.88;;;1.40;99.90;;;;;;5076837;28;20044;-79
2022/01/11 07:53:52;;;;;;;48.78;20.15;;;1.40;99.90;;;;;;5059526;28;20048;-78
2022/01/11 07:56:18;;;;;;;49.67;21.45;;;1.70;99.90;;;;;;5030599;28;20477;-78
2022/01/11 07:58:44;;;;;;;49.78;21.10;;;2.30;99.90;;;;;;5064010;28;20044;-77
2022/01/11 08:01:10;;;;;;;52.65;20.60;;;2.50;99.90;;;;;;5061302;28;20170;-77
2022/01/11 08:03:36;;;;;;;49.85;20.38;;;2.40;99.90;;;;;;5058934;28;20488;-78
2022/01/11 08:06:02;;;;;;;49.17;20.83;;;1.40;99.90;;;;;;5063434;28;20044;-77
2022/01/11 08:08:28;;;;;;;46.83;20.05;;;1.40;99.90;;;;;;5076758;28;20054;-77
2022/01/11 08:10:55;;;;;;;50.45;20.10;;;2.40;99.90;;;;;;5076269;28;20123;-77
2022/01/11 08:13:24;;;;;;;46.95;19.38;;;2.30;99.90;;;;;;5078064;28;20044;-77
2022/01/11 08:15:51;;;;;;;47.65;19.17;;;1.40;99.90;;;;;;5062836;28;20158;-78
2022/01/11 08:18:17;;;;;;;52.60;20.40;;;2.60;99.90;;;;;;5058590;28;20133;-79
2022/01/11 08:20:44;;;;;;;49.13;19.88;;;2.80;99.90;;;;;;5078024;28;20075;-79
2022/01/11 08:23:11;;;;;;;48.38;19.75;;;2.00;99.90;;;;;;5060436;28;20044;-79
2022/01/11 08:25:37;;;;;;;44.22;18.67;;;2.80;99.90;;;;;;5059320;28;20055;-80
2022/01/11 08:28:03;;;;;;;50.13;20.90;;;1.40;99.90;;;;;;5043744;28;20052;-79
2022/01/11 08:30:29;;;;;;;50.95;20.73;;;1.40;99.90;;;;;;5075936;28;20056;-80
2022/01/11 08:32:55;;;;;;;46.80;20.33;;;1.40;99.90;;;;;;5062449;28;20066;-77
2022/01/11 08:35:21;;;;;;;51.80;21.05;;;2.60;99.90;;;;;;5044112;28;20501;-81
2022/01/11 08:37:47;;;;;;;51.35;20.95;;;1.40;99.90;;;;;;5058903;28;20389;-78
2022/01/11 08:40:14;;;;;;;48.63;19.80;;;1.40;99.90;;;;;;5027892;28;20054;-78
2022/01/11 08:42:39;;;;;;;49.38;20.73;;;1.40;99.90;;;;;;5076912;28;20409;-78
2022/01/11 08:45:06;;;;;;;48.10;20.35;;;1.50;99.90;;;;;;5076759;28;20050;-79
2022/01/11 08:47:32;;;;;;;51.38;21.73;;;1.50;99.90;;;;;;5060994;28;20048;-79
2022/01/11 08:49:59;;;;;;;53.25;22.95;;;2.20;99.90;;;;;;5077564;28;20047;-78
2022/01/11 08:52:26;;;;;;;50.53;22.02;;;2.30;99.90;;;;;;5076498;28;20105;-77
2022/01/11 08:54:52;;;;;;;49.40;21.88;;;1.50;99.90;;;;;;5059794;28;20803;-79
2022/01/11 08:57:19;;;;;;;51.15;21.33;;;1.50;99.90;;;;;;5059348;28;20054;-78
2022/01/11 08:59:46;;;;;;;50.08;21.85;;;2.00;99.90;;;;;;5059170;28;20456;-79
2022/01/11 09:02:13;;;;;;;48.08;21.65;;;1.50;99.90;;;;;;5059048;28;20059;-80
2022/01/11 09:04:39;;;;;;;52.97;21.67;;;2.50;99.90;;;;;;5059453;28;20109;-79
2022/01/11 09:07:05;;;;;;;50.13;21.63;;;2.00;99.90;;;;;;5059030;28;20048;-79
2022/01/11 09:09:34;;;;;;;47.55;21.25;;;1.60;99.90;;;;;;5058478;28;20185;-89
2022/01/11 09:12:06;;;;;;;46.67;21.00;;;1.60;99.90;;;;;;5074643;28;20040;-78
2022/01/11 09:14:33;;;;;;;49.78;22.17;;;1.60;99.90;;;;;;5062726;28;20063;-79
2022/01/11 09:17:02;;;;;;;54.05;22.90;;;1.80;99.90;;;;;;5062292;28;20060;-81
2022/01/11 09:19:29;;;;;;;52.60;22.23;;;1.70;99.90;;;;;;5046982;28;20062;-83
2022/01/11 09:21:58;;;;;;;51.55;23.90;;;1.60;99.90;;;;;;5061476;28;20048;-84
2022/01/11 09:24:29;;;;;;;60.30;24.27;;;1.60;99.90;;;;;;5062232;28;20064;-88
2022/01/11 09:27:21;;;;;;;49.92;22.40;;;1.60;99.90;;;;;;5064471;28;20216;-87
2022/01/11 09:29:47;;;;;;;56.08;23.30;;;1.70;99.90;;;;;;5078402;28;20040;-80
2022/01/11 09:32:16;;;;;;;53.30;22.33;;;3.10;99.90;;;;;;5059975;28;20052;-77
2022/01/11 09:34:42;;;;;;;48.03;21.27;;;1.70;99.90;;;;;;5076762;28;20071;-79
2022/01/11 09:37:09;;;;;;;52.05;21.38;;;1.90;99.90;;;;;;5046173;28;20055;-78
2022/01/11 09:39:36;;;;;;;50.05;21.60;;;1.80;99.90;;;;;;5045458;28;20051;-79
2022/01/11 09:42:05;;;;;;;49.88;22.17;;;1.80;99.90;;;;;;5075590;28;20615;-78
2022/01/11 09:44:33;;;;;;;49.90;22.90;;;1.80;99.90;;;;;;5077509;28;20040;-79
2022/01/11 09:46:59;;;;;;;45.55;20.10;;;2.10;99.90;;;;;;5061602;28;20055;-79
2022/01/11 09:49:25;;;;;;;48.15;20.90;;;3.00;99.90;;;;;;5077210;28;20128;-77
2022/01/11 09:51:52;;;;;;;45.67;21.30;;;1.80;99.90;;;;;;5077329;28;20134;-78
2022/01/11 09:54:21;;;;;;;52.13;22.73;;;3.10;99.90;;;;;;5077916;28;20047;-77
2022/01/11 09:56:47;;;;;;;47.40;21.65;;;2.90;99.90;;;;;;5075638;28;20051;-77
2022/01/11 09:59:14;;;;;;;49.80;21.13;;;1.90;99.90;;;;;;5062370;28;20409;-77
2022/01/11 10:01:40;;;;;;;49.97;21.58;;;1.90;99.90;;;;;;5058802;28;20051;-77
2022/01/11 10:04:11;;;;;;;46.55;20.77;;;2.00;99.90;;;;;;5045780;28;20070;-77
2022/01/11 10:06:42;;;;;;;52.08;22.05;;;2.00;99.90;;;;;;5076997;28;20090;-78
2022/01/11 10:09:21;;;;;;;42.63;18.65;;;2.10;99.90;;;;;;5046069;28;20120;-77
2022/01/11 10:11:53;;;;;;;46.53;20.17;;;2.20;99.90;;;;;;5058703;28;20104;-77
2022/01/11 10:14:31;;;;;;;41.72;19.95;;;2.10;99.90;;;;;;5078466;28;20048;-77
2022/01/11 10:17:24;;;;;;;43.80;19.98;;;2.70;99.90;;;;;;5050607;28;20181;-77
2022/01/11 10:20:14;;;;;;;43.13;20.33;;;2.60;99.90;;;;;;5081202;28;20087;-77
2022/01/11 10:22:59;;;;;;;47.65;19.67;;;2.30;99.90;;;;;;5081693;28;20097;-78
2022/01/11 10:25:27;;;;;;;47.33;20.58;;;2.30;99.90;;;;;;5065826;28;20072;-77
2022/01/11 10:28:05;;;;;;;40.80;19.27;;;2.40;99.90;;;;;;5066515;28;20063;-78
2022/01/11 10:30:32;;;;;;;41.65;19.38;;;2.40;99.90;;;;;;5069188;28;20471;-79
2022/01/11 10:33:04;;;;;;;39.60;19.77;;;2.40;99.90;;;;;;5068089;28;20485;-79
2022/01/11 10:35:42;;;;;;;42.90;19.75;;;2.60;99.90;;;;;;5067464;28;20731;-79
2022/01/11 10:38:10;;;;;;;40.35;19.42;;;2.50;99.90;;;;;;5069380;28;20051;-79
2022/01/11 10:40:43;;;;;;;41.35;18.13;;;2.50;99.90;;;;;;5063078;28;20056;-79
2022/01/11 10:43:11;;;;;;;35.33;17.48;;;2.60;99.90;;;;;;5052581;28;20051;-78
2022/01/11 10:45:42;;;;;;;38.38;18.38;;;3.30;99.90;;;;;;5083866;28;20040;-79
2022/01/11 10:48:14;;;;;;;37.30;18.13;;;2.60;99.90;;;;;;5066805;28;20463;-79
2022/01/11 10:50:45;;;;;;;34.15;17.15;;;2.70;99.90;;;;;;5091240;28;20043;-79
2022/01/11 10:53:24;;;;;;;39.42;18.27;;;2.70;99.90;;;;;;5083320;28;20162;-78
2022/01/11 10:55:53;;;;;;;39.20;17.85;;;2.70;99.90;;;;;;5081317;28;20089;-78
2022/01/11 10:58:19;;;;;;;38.35;18.20;;;2.70;99.90;;;;;;5063315;28;20493;-77
2022/01/11 11:01:05;;;;;;;38.00;18.30;;;2.70;99.90;;;;;;5080465;28;20044;-77
2022/01/11 11:03:33;;;;;;;35.47;17.33;;;2.70;99.90;;;;;;5060786;28;20056;-78
2022/01/11 11:06:10;;;;;;;39.38;18.88;;;2.80;99.90;;;;;;5074638;28;20048;-78
2022/01/11 11:08:40;;;;;;;35.63;17.67;;;2.80;99.90;;;;;;5062660;28;20485;-78
2022/01/11 11:11:20;;;;;;;37.75;18.20;;;2.80;99.90;;;;;;5078588;28;20113;-78
2022/01/11 11:13:48;;;;;;;35.85;17.42;;;2.80;99.90;;;;;;5067473;28;20051;-78
2022/01/11 11:16:22;;;;;;;32.88;16.95;;;2.90;99.90;;;;;;5066214;28;20538;-78
2022/01/11 11:18:54;;;;;;;33.70;16.63;;;2.90;99.90;;;;;;5077244;28;20055;-79
2022/01/11 11:21:21;;;;;;;34.70;16.90;;;2.90;99.90;;;;;;5063043;28;20181;-78
2022/01/11 11:24:02;;;;;;;35.28;17.70;;;3.00;99.90;;;;;;5059376;28;20067;-80
2022/01/11 11:26:38;;;;;;;36.90;18.15;;;3.00;99.90;;;;;;5084860;28;20052;-80
2022/01/11 11:29:08;;;;;;;37.20;18.45;;;3.00;99.90;;;;;;5059918;28;20035;-80
2022/01/11 11:31:34;;;;;;;34.08;16.77;;;3.00;99.90;;;;;;5060431;28;20505;-81
2022/01/11 11:34:06;;;;;;;35.20;17.65;;;4.70;99.90;;;;;;5045359;28;20067;-81
2022/01/11 11:36:36;;;;;;;35.03;16.23;;;3.30;99.90;;;;;;5058427;28;20044;-79
2022/01/11 11:39:22;;;;;;;33.47;16.67;;;4.30;99.90;;;;;;5076897;28;20036;-78
2022/01/11 11:41:50;;;;;;;;;;;3.20;99.90;;;;;;5076449;28;20805;-80
2022/01/11 11:44:21;;;;;;;32.80;16.85;;;3.20;99.90;;;;;;5076996;28;20432;-81
2022/01/11 11:46:53;;;;;;;35.85;16.45;;;3.20;99.90;;;;;;5060664;28;20048;-80
2022/01/11 11:49:40;;;;;;;30.63;15.52;;;3.20;99.90;;;;;;5061159;28;20750;-80
2022/01/11 11:52:23;;;;;;;32.40;16.05;;;3.30;99.90;;;;;;5075095;28;20631;-80
2022/01/11 11:54:50;;;;;;;30.13;16.00;;;3.40;99.90;;;;;;5076505;28;20044;-81
2022/01/11 11:57:17;;;;;;;27.65;14.35;;;3.40;99.90;;;;;;5061033;28;20108;-78
2022/01/11 11:59:54;;;;;;;30.02;15.38;;;3.40;99.90;;;;;;5076744;28;20507;-79
2022/01/11 12:02:38;;;;;;;26.25;15.73;;;3.40;99.90;;;;;;5060628;28;20089;-79
2022/01/11 12:05:30;;;;;;;29.17;15.80;;;3.40;99.90;;;;;;5075567;28;20059;-79
2022/01/11 12:07:56;;;;;;;31.27;15.75;;;3.50;99.90;;;;;;5059282;28;20127;-76
2022/01/11 12:10:57;;;;;;;26.73;14.25;;;4.40;99.90;;;;;;5076796;28;20039;-79
2022/01/11 12:13:42;;;;;;;27.08;14.48;;;3.50;99.90;;;;;;5061030;28;20055;-78
2022/01/11 12:16:23;;;;;;;22.73;13.17;;;3.50;99.90;;;;;;5062083;28;20674;-77
2022/01/11 12:18:59;;;;;;;24.27;14.15;;;4.40;99.90;;;;;;5046232;28;20149;-79
2022/01/11 12:21:28;;;;;;;26.55;13.45;;;3.50;99.90;;;;;;5047437;28;20106;-78
2022/01/11 12:23:56;;;;;;;25.98;13.55;;;3.50;99.90;;;;;;5045159;28;20059;-78
2022/01/11 12:26:28;;;;;;;22.35;12.25;;;3.50;99.90;;;;;;5080063;28;20075;-77
2022/01/11 12:29:03;;;;;;;27.92;14.00;;;3.50;99.90;;;;;;5063109;28;20086;-77
2022/01/11 12:32:00;;;;;;;24.73;13.95;;;3.50;99.90;;;;;;5077889;28;20127;-78
2022/01/11 12:34:45;;;;;;;26.05;13.90;;;3.50;99.90;;;;;;5058421;28;20131;-79
2022/01/11 12:37:20;;;;;;;23.77;12.98;;;3.80;99.90;;;;;;5062259;28;20036;-79
2022/01/11 12:40:04;;;;;;;23.75;13.15;;;4.10;99.90;;;;;;5061370;28;20052;-78
2022/01/11 12:42:31;;;;;;;21.30;12.80;;;3.70;99.90;;;;;;5077937;28;20048;-78
2022/01/11 12:47:43;;;;;;;23.20;12.73;;;4.40;99.90;;;;;;5063137;28;20056;-78
2022/01/11 12:50:14;;;;;;;23.23;12.30;;;3.60;99.90;;;;;;5077621;28;20374;-79
2022/01/11 12:52:40;;;;;;;26.15;14.02;;;3.90;99.90;;;;;;5076210;28;20059;-80